^^
Datos históricos de la estación: Murcia-Puente Tocinos
Diario Informe para Septiembre 29, 2019 Unidades:  Métrico    Ingés   Ambas
Diario Semanal Mensual Anual
  Máxima: Mínima: Promedio:
Temperatura: 21.4 °C 11.9 °C 16.8 °C
Punto de rocio: 12.8 °C 6.9 °C 10.1 °C
Humedad: 84.2% 50.8% 65%
Velocidad viento: 20.9km/h 0km/h 8.1km/h
Racha viento: 38.9km/h - -
Viento- - ENE
Presión: 1019.0 hPa 1015.4 hPa -
Precipitación: 0.0 mm    
 
 
Tabla de datos para Septiembre 29, 2019
Hora Temperatura Punto de rocio Presión Viento Velocidad viento Racha viento Humedad Intensidad lluvia(por hora) Nubes
00:04 15.8 °C 7.8 °C 1019.0 hPa NE 5.8 km/h 9.7 km/h 59.1% 0.0 mm
00:09 15.7 °C 7.7 °C 1019.0 hPa NE 5.6 km/h 8 km/h 59% 0.0 mm
00:14 15.7 °C 7.7 °C 1019.0 hPa NE 5 km/h 9.5 km/h 59% 0.0 mm
00:19 15.7 °C 7.9 °C 1019.0 hPa NE 5.2 km/h 9.7 km/h 60% 0.0 mm
00:24 15.6 °C 8.1 °C 1018.9 hPa NE 5.8 km/h 10 km/h 60.8% 0.0 mm
00:29 15.4 °C 8.2 °C 1018.9 hPa NE 5.8 km/h 9.7 km/h 61.9% 0.0 mm
00:34 15.3 °C 8.1 °C 1018.9 hPa NE 5.8 km/h 9.7 km/h 62.2% 0.0 mm
00:39 15.3 °C 8.3 °C 1018.9 hPa NE 5.4 km/h 8 km/h 63% 0.0 mm
00:44 15.2 °C 8.4 °C 1018.9 hPa NE 4.7 km/h 8 km/h 63.8% 0.0 mm
00:49 15.2 °C 8.3 °C 1018.9 hPa NE 4.7 km/h 8 km/h 63.7% 0.0 mm
00:54 15.1 °C 8.3 °C 1018.8 hPa NE 4.7 km/h 8.4 km/h 63.9% 0.0 mm
00:59 15 °C 8.3 °C 1018.8 hPa NE 4.3 km/h 8 km/h 64% 0.0 mm
01:04 14.9 °C 8.2 °C 1018.8 hPa NE 3.9 km/h 8 km/h 64% 0.0 mm
01:09 14.9 °C 8.2 °C 1018.8 hPa North 3.6 km/h 7.4 km/h 64.5% 0.0 mm
01:14 14.8 °C 8.3 °C 1018.8 hPa NE 3.2 km/h 8 km/h 65% 0.0 mm
01:19 14.7 °C 8.1 °C 1018.8 hPa NE 3.8 km/h 8 km/h 64.6% 0.0 mm
01:24 14.6 °C 7.9 °C 1018.7 hPa NE 4.7 km/h 8 km/h 64% 0.0 mm
01:29 14.6 °C 8 °C 1018.7 hPa NE 4 km/h 4.8 km/h 64.5% 0.0 mm
01:34 14.6 °C 7.6 °C 1018.7 hPa NE 2.9 km/h 3.9 km/h 63% 0.0 mm
01:39 14.6 °C 7.4 °C 1018.7 hPa ENE 1.7 km/h 3.2 km/h 62.2% 0.0 mm
01:44 14.6 °C 7.4 °C 1018.7 hPa Calm   5.8 km/h 62.2% 0.0 mm
01:49 14.6 °C 7.8 °C 1018.7 hPa NE 1 km/h 6.4 km/h 63.7% 0.0 mm
01:54 14.6 °C 7.8 °C 1018.7 hPa NE 2.2 km/h 4.8 km/h 64% 0.0 mm
01:59 14.4 °C 7.7 °C 1018.7 hPa NE 1.2 km/h   64% 0.0 mm
02:04 14.4 °C 7.8 °C 1018.8 hPa Calm     64.4% 0.0 mm
02:09 14.4 °C 7.7 °C 1018.8 hPa Calm     64% 0.0 mm
02:14 14.4 °C 7.7 °C 1018.8 hPa Calm     64% 0.0 mm
02:19 14.4 °C 7.7 °C 1018.8 hPa Calm     64% 0.0 mm
02:24 14.4 °C 7.4 °C 1018.6 hPa Calm     62.6% 0.0 mm
02:29 14.3 °C 7.1 °C 1018.6 hPa Calm     61.9% 0.0 mm
02:34 14.3 °C 6.9 °C 1018.6 hPa Calm     61.3% 0.0 mm
02:39 14.3 °C 7 °C 1018.4 hPa Calm   4.7 km/h 61.7% 0.0 mm
02:44 14.3 °C 7.1 °C 1018.4 hPa Calm   4.8 km/h 62% 0.0 mm
02:49 14.2 °C 7.2 °C 1018.4 hPa ENE 1 km/h 5.6 km/h 62.7% 0.0 mm
02:54 14.2 °C 7.4 °C 1018.3 hPa ENE 2.2 km/h 4.8 km/h 63.4% 0.0 mm
02:59 14.1 °C 7.4 °C 1018.3 hPa ENE 1.2 km/h 5.8 km/h 64% 0.0 mm
03:04 14.1 °C 7.5 °C 1018.3 hPa Calm   6.4 km/h 64.6% 0.0 mm
03:09 14 °C 7.5 °C 1018.3 hPa ENE 1.2 km/h 5.8 km/h 65.1% 0.0 mm
03:14 14 °C 7.5 °C 1018.3 hPa ENE 2.9 km/h 6.4 km/h 65.1% 0.0 mm
03:19 13.9 °C 7.4 °C 1018.3 hPa SE 3.3 km/h 8.4 km/h 65% 0.0 mm
03:24 14 °C 7.3 °C 1018.1 hPa SSE 3.9 km/h 8.4 km/h 64% 0.0 mm
03:29 14.1 °C 7.3 °C 1018.1 hPa SSE 4.3 km/h 8 km/h 64% 0.0 mm
03:34 14.1 °C 7.4 °C 1018.1 hPa SE 5 km/h 8 km/h 64% 0.0 mm
03:39 14.1 °C 7.5 °C 1018.1 hPa SSE 4.3 km/h 8 km/h 64.5% 0.0 mm
03:44 14 °C 7.6 °C 1018.1 hPa Sur 3.2 km/h 8.4 km/h 65.2% 0.0 mm
03:49 14 °C 7.7 °C 1018.1 hPa SSE 3.8 km/h 8 km/h 66% 0.0 mm
03:54 13.9 °C 7.7 °C 1018.0 hPa SSE 4.7 km/h 9.5 km/h 66% 0.0 mm
03:59 13.9 °C 7.8 °C 1018.0 hPa SSE 4.8 km/h 9.7 km/h 66.7% 0.0 mm
04:04 13.9 °C 7.9 °C 1018.0 hPa SE 5 km/h 9.7 km/h 67% 0.0 mm
04:09 13.9 °C 7.9 °C 1017.9 hPa SSE 4.9 km/h 9.7 km/h 67% 0.0 mm
04:14 13.9 °C 7.9 °C 1017.9 hPa SSE 4.7 km/h 8 km/h 67.2% 0.0 mm
04:19 13.8 °C 8 °C 1017.9 hPa Sur 4.8 km/h 9.3 km/h 68% 0.0 mm
04:24 13.8 °C 8 °C 1017.9 hPa Sur 5 km/h 9.7 km/h 68% 0.0 mm
04:29 13.8 °C 8.2 °C 1017.9 hPa Sur 4.9 km/h 8 km/h 68.9% 0.0 mm
04:34 13.8 °C 8.2 °C 1017.9 hPa Sur 4.7 km/h 8 km/h 69% 0.0 mm
04:39 13.8 °C 8.2 °C 1017.9 hPa Sur 3.7 km/h 4.8 km/h 69% 0.0 mm
04:44 13.8 °C 8.2 °C 1017.9 hPa Sur 2.2 km/h 3.2 km/h 69% 0.0 mm
04:49 13.7 °C 8.1 °C 1017.9 hPa Sur 1.3 km/h   69% 0.0 mm
04:54 13.5 °C 8 °C 1017.8 hPa Calm   4.7 km/h 69% 0.0 mm
04:59 13.3 °C 7.9 °C 1017.8 hPa Sur 1 km/h 4.8 km/h 69.7% 0.0 mm
05:04 13.3 °C 7.9 °C 1017.8 hPa Sur 2.2 km/h 3.7 km/h 70% 0.0 mm
05:09 13.2 °C 7.8 °C 1017.7 hPa Sur 1.4 km/h 3.2 km/h 70% 0.0 mm
05:14 13.2 °C 7.8 °C 1017.7 hPa Calm   5.6 km/h 70% 0.0 mm
05:19 13.2 °C 7.8 °C 1017.7 hPa Sur 1.2 km/h 5.8 km/h 70% 0.0 mm
05:24 13.2 °C 7.8 °C 1017.7 hPa Sur 2.9 km/h 7.6 km/h 70% 0.0 mm
05:29 13.2 °C 7.9 °C 1017.7 hPa Sur 3.7 km/h 9.3 km/h 70% 0.0 mm
05:34 13.3 °C 7.8 °C 1017.7 hPa SSO 5 km/h 9.7 km/h 69.3% 0.0 mm
05:39 13.3 °C 7.8 °C 1017.6 hPa SSO 4.9 km/h 8 km/h 69% 0.0 mm
05:44 13.4 °C 7.8 °C 1017.6 hPa SSO 4.7 km/h 8.4 km/h 69% 0.0 mm
05:49 13.4 °C 7.8 °C 1017.6 hPa SSO 4.3 km/h 8 km/h 69% 0.0 mm
05:54 13.4 °C 7.9 °C 1017.5 hPa SSO 3.9 km/h 4.8 km/h 69.1% 0.0 mm
05:59 13.4 °C 8 °C 1017.5 hPa SSO 2 km/h 5.6 km/h 69.7% 0.0 mm
06:04 13.3 °C 7.8 °C 1017.5 hPa Calm   5.6 km/h 69.1% 0.0 mm
06:09 13.2 °C 7.9 °C 1017.5 hPa SSO 0.9 km/h 4.8 km/h 70% 0.0 mm
06:14 13.1 °C 7.7 °C 1017.5 hPa SSO 2.2 km/h 4.8 km/h 70% 0.0 mm
06:19 12.9 °C 7.6 °C 1017.5 hPa SSO 1.3 km/h 3.9 km/h 70% 0.0 mm
06:24 12.8 °C 7.7 °C 1017.5 hPa Calm   4.7 km/h 71% 0.0 mm
06:29 12.7 °C 7.7 °C 1017.5 hPa Calm   4.8 km/h 71.6% 0.0 mm
06:34 12.7 °C 7.7 °C 1017.6 hPa Calm   3.2 km/h 72% 0.0 mm
06:39 12.6 °C 7.6 °C 1017.6 hPa Calm   3.9 km/h 72% 0.0 mm
06:44 12.4 °C 7.6 °C 1017.6 hPa Calm   4.7 km/h 72.3% 0.0 mm
06:49 12.3 °C 7.6 °C 1017.7 hPa Calm   4.8 km/h 73% 0.0 mm
06:54 12.3 °C 7.6 °C 1017.7 hPa Calm     73% 0.0 mm
06:59 12.2 °C 7.7 °C 1017.7 hPa Calm     73.8% 0.0 mm
07:04 12.2 °C 7.7 °C 1017.8 hPa Calm     74% 0.0 mm
07:09 12.2 °C 7.8 °C 1017.8 hPa Calm   4.7 km/h 74.5% 0.0 mm
07:14 12.2 °C 7.9 °C 1017.8 hPa Calm   4.8 km/h 74.8% 0.0 mm
07:19 12.2 °C 7.7 °C 1018.0 hPa Calm     74% 0.0 mm
07:24 12.1 °C 7.6 °C 1018.0 hPa Calm   5.6 km/h 74% 0.0 mm
07:29 12.1 °C 7.6 °C 1018.0 hPa Este 1.2 km/h 5.8 km/h 74% 0.0 mm
07:34 12 °C 7.5 °C 1018.1 hPa Este 2.9 km/h 6.4 km/h 74% 0.0 mm
07:39 11.9 °C 7.5 °C 1018.1 hPa Este 2.9 km/h 5.6 km/h 74.1% 0.0 mm
07:44 12 °C 7.7 °C 1018.1 hPa Este 2.9 km/h 5.6 km/h 75% 0.0 mm
07:49 12.1 °C 7.8 °C 1018.3 hPa Este 2.9 km/h 5.6 km/h 75% 0.0 mm
07:54 12.2 °C 7.8 °C 1018.3 hPa Este 2.9 km/h 3.7 km/h 75% 0.0 mm
07:59 12.3 °C 8 °C 1018.3 hPa Este 1.6 km/h 3.2 km/h 74.6% 0.0 mm
08:04 12.6 °C 8 °C 1018.5 hPa Calm   5.8 km/h 73.7% 0.0 mm
08:09 12.7 °C 8 °C 1018.5 hPa SE 1.2 km/h 7.4 km/h 73% 0.0 mm
08:14 12.8 °C 8.1 °C 1018.5 hPa SE 2.9 km/h 8 km/h 73% 0.0 mm
08:19 13 °C 8.3 °C 1018.6 hPa SE 2.9 km/h 4.8 km/h 73% 0.0 mm
08:24 13.2 °C 8.4 °C 1018.6 hPa SE 2.9 km/h 3.7 km/h 72.6% 0.0 mm
08:29 13.7 °C 8.6 °C 1018.6 hPa SE 1.8 km/h 3.2 km/h 71.4% 0.0 mm
08:34 14.1 °C 8.7 °C 1018.6 hPa Calm   4.7 km/h 70.1% 0.0 mm
08:39 14.6 °C 8.8 °C 1018.6 hPa NE 0.9 km/h 6.4 km/h 68.4% 0.0 mm
08:44 14.8 °C 8.8 °C 1018.6 hPa NE 2.2 km/h 8 km/h 67.5% 0.0 mm
08:49 14.9 °C 8.8 °C 1018.7 hPa NE 2.6 km/h 8 km/h 67% 0.0 mm
08:54 14.9 °C 8.9 °C 1018.7 hPa NNE 3.2 km/h 8 km/h 67.4% 0.0 mm
08:59 14.9 °C 9 °C 1018.7 hPa NNE 3.2 km/h 8 km/h 67.8% 0.0 mm
09:04 15 °C 8.9 °C 1018.8 hPa NNE 3.2 km/h 7.4 km/h 67.1% 0.0 mm
09:09 15.3 °C 9.2 °C 1018.8 hPa NE 3.1 km/h 8 km/h 66.9% 0.0 mm
09:14 15.4 °C 9.1 °C 1018.8 hPa NNE 2.9 km/h 8 km/h 66.1% 0.0 mm
09:19 15.4 °C 9.1 °C 1018.9 hPa NE 3.3 km/h 8 km/h 66% 0.0 mm
09:24 15.5 °C 9.2 °C 1018.9 hPa NNE 3.9 km/h 8 km/h 66% 0.0 mm
09:29 15.6 °C 9.1 °C 1018.9 hPa NE 3.9 km/h 9.3 km/h 65.2% 0.0 mm
09:34 15.6 °C 9.1 °C 1018.9 hPa NNE 3.9 km/h 9.7 km/h 65.1% 0.0 mm
09:39 15.7 °C 9.1 °C 1018.8 hPa NE 3.9 km/h 8 km/h 65.1% 0.0 mm
09:44 15.7 °C 9.4 °C 1018.8 hPa NE 3.9 km/h 8.4 km/h 66% 0.0 mm
09:49 15.8 °C 9.5 °C 1018.8 hPa NE 4.2 km/h 9.5 km/h 65.9% 0.0 mm
09:54 15.9 °C 9.5 °C 1018.7 hPa NE 4.7 km/h 9.7 km/h 65.7% 0.0 mm
09:59 16 °C 9.4 °C 1018.7 hPa NNE 4.7 km/h 9.7 km/h 64.8% 0.0 mm
10:04 16.2 °C 9.3 °C 1018.7 hPa North 4.6 km/h 9.3 km/h 64% 0.0 mm
10:09 16.3 °C 9.2 °C 1018.6 hPa NE 5.1 km/h 11.9 km/h 63.1% 0.0 mm
10:14 16.4 °C 9.2 °C 1018.6 hPa NNE 5.8 km/h 11.3 km/h 62.3% 0.0 mm
10:19 16.6 °C 9.1 °C 1018.6 hPa NNE 6.5 km/h 15.6 km/h 61.3% 0.0 mm
10:24 16.7 °C 9.1 °C 1018.6 hPa NNE 7.6 km/h 16.1 km/h 61% 0.0 mm
10:29 16.7 °C 9.4 °C 1018.6 hPa NE 8.3 km/h 16.1 km/h 61.9% 0.0 mm
10:34 16.8 °C 9.6 °C 1018.6 hPa NNE 9.5 km/h 18.5 km/h 62.3% 0.0 mm
10:39 16.8 °C 9.8 °C 1018.5 hPa NE 9.7 km/h 19.3 km/h 63.1% 0.0 mm
10:44 17.1 °C 10 °C 1018.5 hPa NNE 10 km/h 19.3 km/h 63.3% 0.0 mm
10:49 17.2 °C 10.2 °C 1018.5 hPa NE 10.4 km/h 19.3 km/h 63.3% 0.0 mm
10:54 17.3 °C 10.2 °C 1018.5 hPa NE 11.1 km/h 20.4 km/h 63.1% 0.0 mm
10:59 17.4 °C 10.3 °C 1018.5 hPa NE 10.7 km/h 20.9 km/h 63% 0.0 mm
11:04 17.6 °C 10.5 °C 1018.5 hPa NE 10.3 km/h 16.7 km/h 63.1% 0.0 mm
11:09 17.8 °C 10.6 °C 1018.5 hPa NE 10 km/h 16.1 km/h 62.6% 0.0 mm
11:14 18 °C 10.5 °C 1018.5 hPa NE 9.5 km/h 16.1 km/h 61.4% 0.0 mm
11:19 18.3 °C 10.6 °C 1018.5 hPa NE 8.2 km/h 13.7 km/h 61% 0.0 mm
11:24 18.6 °C 10.9 °C 1018.5 hPa ENE 6.5 km/h 14.5 km/h 60.9% 0.0 mm
11:29 18.7 °C 11 °C 1018.5 hPa NE 6.7 km/h 13 km/h 61% 0.0 mm
11:34 18.8 °C 11.1 °C 1018.5 hPa NNE 6.9 km/h 24.1 km/h 61% 0.0 mm
11:39 18.7 °C 11 °C 1018.4 hPa NE 8.2 km/h 24.1 km/h 60.9% 0.0 mm
11:44 18.6 °C 10.6 °C 1018.4 hPa ENE 10 km/h 20.9 km/h 59.5% 0.0 mm
11:49 18.7 °C 10.3 °C 1018.4 hPa NE 10.7 km/h 20.9 km/h 58.2% 0.0 mm
11:54 18.8 °C 10.2 °C 1018.3 hPa NE 11.9 km/h 20.9 km/h 57.1% 0.0 mm
11:59 18.9 °C 10.7 °C 1018.3 hPa NNE 10.8 km/h 20.9 km/h 58.8% 0.0 mm
12:04 19.2 °C 10.5 °C 1018.3 hPa ENE 9.5 km/h 19.3 km/h 57.5% 0.0 mm
12:09 19.2 °C 10.5 °C 1018.2 hPa NE 9.8 km/h 22.2 km/h 57.1% 0.0 mm
12:14 19.2 °C 10.2 °C 1018.2 hPa NE 10.3 km/h 22.5 km/h 56.3% 0.0 mm
12:19 19.3 °C 10.6 °C 1018.2 hPa NE 11 km/h 22.5 km/h 57.2% 0.0 mm
12:24 19.3 °C 11.1 °C 1018.0 hPa NE 11.9 km/h 22.5 km/h 58.7% 0.0 mm
12:29 19.4 °C 11.4 °C 1018.0 hPa NE 12 km/h 20.4 km/h 59.9% 0.0 mm
12:34 19.4 °C 11.4 °C 1018.0 hPa NNE 12.2 km/h 20.9 km/h 60% 0.0 mm
12:39 19.6 °C 11.6 °C 1018.0 hPa NE 12.1 km/h 24.1 km/h 60.2% 0.0 mm
12:44 19.6 °C 11.5 °C 1018.0 hPa NE 11.9 km/h 24.1 km/h 59.6% 0.0 mm
12:49 19.8 °C 11.6 °C 1018.0 hPa NNE 11.9 km/h 22.5 km/h 59.2% 0.0 mm
12:54 19.9 °C 11.7 °C 1018.0 hPa NE 11.9 km/h 25.9 km/h 59.2% 0.0 mm
12:59 20 °C 11.8 °C 1018.0 hPa NE 12.1 km/h 25.7 km/h 59.1% 0.0 mm
13:04 20.2 °C 11.6 °C 1018.0 hPa NE 12.2 km/h 20.1 km/h 57.7% 0.0 mm
13:09 20.2 °C 11.8 °C 1017.7 hPa NE 11.8 km/h 27 km/h 58.5% 0.0 mm
13:14 20.1 °C 11.6 °C 1017.7 hPa NE 11.1 km/h 27.8 km/h 58.2% 0.0 mm
13:19 20.1 °C 11.8 °C 1017.7 hPa ENE 12.3 km/h 27.4 km/h 58.8% 0.0 mm
13:24 20.3 °C 11.6 °C 1017.5 hPa NE 14 km/h 22.5 km/h 57.6% 0.0 mm
13:29 20.4 °C 11.8 °C 1017.5 hPa ENE 13.6 km/h 22.5 km/h 58% 0.0 mm
13:34 20.4 °C 11.7 °C 1017.5 hPa NE 13 km/h 25.9 km/h 57.2% 0.0 mm
13:39 20.3 °C 11.8 °C 1017.2 hPa ENE 13.7 km/h 28.2 km/h 57.9% 0.0 mm
13:44 20.5 °C 12 °C 1017.2 hPa NE 14.8 km/h 27.4 km/h 58.1% 0.0 mm
13:49 20.7 °C 12 °C 1017.2 hPa NE 13.7 km/h 22.5 km/h 57.5% 0.0 mm
13:54 20.7 °C 11.9 °C 1017.0 hPa NE 12.2 km/h 26.2 km/h 57.2% 0.0 mm
13:59 20.7 °C 12.1 °C 1017.0 hPa ENE 13.1 km/h 25.7 km/h 57.8% 0.0 mm
14:04 20.7 °C 11.9 °C 1017.0 hPa NE 14 km/h 24.5 km/h 57.2% 0.0 mm
14:09 20.7 °C 12 °C 1016.8 hPa NE 14.3 km/h 25.9 km/h 57.5% 0.0 mm
14:14 20.8 °C 12 °C 1016.8 hPa NE 14.8 km/h 25.7 km/h 57.3% 0.0 mm
14:19 20.9 °C 12.1 °C 1016.8 hPa NE 14.3 km/h 24.5 km/h 57% 0.0 mm
14:24 21 °C 12 °C 1016.7 hPa NE 13.7 km/h 27.8 km/h 56.4% 0.0 mm
14:29 21 °C 12 °C 1016.7 hPa ENE 14.1 km/h 27.4 km/h 56.5% 0.0 mm
14:34 21.1 °C 12 °C 1016.7 hPa ENE 14.8 km/h 25.9 km/h 55.8% 0.0 mm
14:39 21.2 °C 11.7 °C 1016.4 hPa ENE 14.5 km/h 27.8 km/h 54.8% 0.0 mm
14:44 21.2 °C 11.7 °C 1016.4 hPa NE 14 km/h 27.4 km/h 54.6% 0.0 mm
14:49 21.2 °C 11.5 °C 1016.4 hPa NE 14.3 km/h 29.6 km/h 54.3% 0.0 mm
14:54 21 °C 11.5 °C 1016.3 hPa NE 14.8 km/h 29 km/h 54.5% 0.0 mm
14:59 21.1 °C 10.9 °C 1016.3 hPa NE 16.5 km/h 27.8 km/h 52.3% 0.0 mm
15:04 21.2 °C 11.2 °C 1016.3 hPa NE 18.4 km/h 31.5 km/h 52.9% 0.0 mm
15:09 21.2 °C 10.9 °C 1016.1 hPa NE 17.6 km/h 32.2 km/h 52.2% 0.0 mm
15:14 21.1 °C 11.1 °C 1016.1 hPa NE 16.4 km/h 29.6 km/h 52.8% 0.0 mm
15:19 21.4 °C 11.1 °C 1016.1 hPa NE 16.3 km/h 29.6 km/h 52.1% 0.0 mm
15:24 21.3 °C 10.8 °C 1015.9 hPa NE 16.1 km/h 29 km/h 51.3% 0.0 mm
15:29 21.4 °C 10.8 °C 1015.9 hPa NE 16.2 km/h 27.8 km/h 50.8% 0.0 mm
15:34 21.4 °C 10.8 °C 1015.9 hPa NNE 16.4 km/h 35.9 km/h 51% 0.0 mm
15:39 21.4 °C 10.9 °C 1015.8 hPa NE 16.4 km/h 35.4 km/h 51.1% 0.0 mm
15:44 21.4 °C 11 °C 1015.8 hPa NE 16.4 km/h 35.4 km/h 51.4% 0.0 mm
15:49 21.3 °C 11.1 °C 1015.8 hPa NE 16.7 km/h 29.6 km/h 52.1% 0.0 mm
15:54 21.2 °C 11.1 °C 1015.6 hPa NE 17.2 km/h 29.6 km/h 52.7% 0.0 mm
15:59 21.2 °C 11.3 °C 1015.6 hPa NE 18 km/h 38.9 km/h 53.2% 0.0 mm
16:04 21.1 °C 11.4 °C 1015.6 hPa ENE 19 km/h 38.6 km/h 53.9% 0.0 mm
16:09 21 °C 11.5 °C 1015.6 hPa NE 19.3 km/h 35.9 km/h 54.3% 0.0 mm
16:14 20.7 °C 11.4 °C 1015.6 hPa NE 19.8 km/h 35.4 km/h 55.1% 0.0 mm
16:19 20.6 °C 11.5 °C 1015.6 hPa NE 20.3 km/h 35.4 km/h 56.2% 0.0 mm
16:24 20.6 °C 11.6 °C 1015.6 hPa NE 20.9 km/h 32.2 km/h 56.5% 0.0 mm
16:29 20.6 °C 11.7 °C 1015.6 hPa NE 20.1 km/h 31.5 km/h 56.8% 0.0 mm
16:34 20.7 °C 11.9 °C 1015.6 hPa NE 19 km/h 32.2 km/h 57% 0.0 mm
16:39 20.6 °C 11.8 °C 1015.4 hPa NE 18 km/h 29.6 km/h 57.1% 0.0 mm
16:44 20.7 °C 12 °C 1015.4 hPa ENE 16.4 km/h 29 km/h 57.4% 0.0 mm
16:49 20.8 °C 11.7 °C 1015.4 hPa NE 15.1 km/h 24.1 km/h 56% 0.0 mm
16:54 20.7 °C 11.7 °C 1015.4 hPa ENE 13 km/h 29.6 km/h 56.2% 0.0 mm
16:59 20.8 °C 11.8 °C 1015.4 hPa ENE 12.5 km/h 29 km/h 56.5% 0.0 mm
17:04 20.7 °C 11.8 °C 1015.4 hPa Este 11.9 km/h 24.1 km/h 56.7% 0.0 mm
17:09 20.9 °C 11.8 °C 1015.4 hPa Este 11.6 km/h 24.1 km/h 56% 0.0 mm
17:14 21.1 °C 11.7 °C 1015.4 hPa NE 11.1 km/h 24.1 km/h 55.1% 0.0 mm
17:19 21.2 °C 11.8 °C 1015.4 hPa ENE 11.1 km/h 24.1 km/h 55.1% 0.0 mm
17:24 21.1 °C 11.8 °C 1015.4 hPa NE 11.1 km/h 25.9 km/h 55.2% 0.0 mm
17:29 20.8 °C 11.9 °C 1015.4 hPa ENE 12.5 km/h 25.9 km/h 56.7% 0.0 mm
17:34 20.6 °C 11.9 °C 1015.4 hPa ENE 14.8 km/h 25.7 km/h 57.6% 0.0 mm
17:39 20.5 °C 12.1 °C 1015.4 hPa ENE 14.5 km/h 24.1 km/h 58.4% 0.0 mm
17:44 20.6 °C 12 °C 1015.4 hPa NE 14 km/h 24.5 km/h 58.1% 0.0 mm
17:49 20.5 °C 12.2 °C 1015.4 hPa ENE 12.5 km/h 24.1 km/h 58.8% 0.0 mm
17:54 20.5 °C 12.2 °C 1015.4 hPa ENE 10.3 km/h 24.1 km/h 59% 0.0 mm
17:59 20.3 °C 12.1 °C 1015.4 hPa ENE 11.2 km/h 26.2 km/h 59.3% 0.0 mm
18:04 20.2 °C 12.2 °C 1015.5 hPa ENE 12.2 km/h 25.9 km/h 60% 0.0 mm
18:09 19.9 °C 12.1 °C 1015.5 hPa NE 13.3 km/h 26.2 km/h 60.6% 0.0 mm
18:14 19.9 °C 12.2 °C 1015.5 hPa NE 14.8 km/h 25.7 km/h 61% 0.0 mm
18:19 19.8 °C 12 °C 1015.5 hPa NE 15.1 km/h 25.9 km/h 61% 0.0 mm
18:24 19.7 °C 12.3 °C 1015.5 hPa NE 15.6 km/h 25.7 km/h 62% 0.0 mm
18:29 19.8 °C 12.3 °C 1015.5 hPa NE 15.6 km/h 27.8 km/h 61.9% 0.0 mm
18:34 19.6 °C 12 °C 1015.5 hPa NE 15.6 km/h 27.8 km/h 61.4% 0.0 mm
18:39 19.5 °C 12 °C 1015.5 hPa NE 15.6 km/h 25.9 km/h 62% 0.0 mm
18:44 19.6 °C 12.1 °C 1015.5 hPa ENE 15.6 km/h 25.7 km/h 62% 0.0 mm
18:49 19.6 °C 12.1 °C 1015.6 hPa NE 14.1 km/h 24.1 km/h 61.9% 0.0 mm
18:54 19.6 °C 12.1 °C 1015.6 hPa NE 11.9 km/h 20.9 km/h 62% 0.0 mm
18:59 19.7 °C 12.2 °C 1015.6 hPa NE 11.2 km/h 25.6 km/h 61.8% 0.0 mm
19:04 19.6 °C 12.1 °C 1015.6 hPa NE 10.3 km/h 25.9 km/h 61.9% 0.0 mm
19:09 19.5 °C 12 °C 1015.6 hPa NE 10.9 km/h 25.7 km/h 62% 0.0 mm
19:14 19.3 °C 12 °C 1015.6 hPa NE 11.9 km/h 24.5 km/h 62.7% 0.0 mm
19:19 19.2 °C 12 °C 1015.6 hPa NE 12.6 km/h 24.1 km/h 63% 0.0 mm
19:24 19.1 °C 11.9 °C 1015.5 hPa NE 13.7 km/h 25.6 km/h 63% 0.0 mm
19:29 18.9 °C 11.9 °C 1015.5 hPa NE 13.8 km/h 27.8 km/h 63.7% 0.0 mm
19:34 19 °C 12 °C 1015.6 hPa ENE 14 km/h 27.4 km/h 63.9% 0.0 mm
19:39 19 °C 11.9 °C 1015.6 hPa NE 12.4 km/h 20.9 km/h 63.3% 0.0 mm
19:44 18.9 °C 11.7 °C 1015.6 hPa ENE 10 km/h 20.9 km/h 63% 0.0 mm
19:49 18.8 °C 11.8 °C 1015.6 hPa ENE 10.4 km/h 20.9 km/h 63.8% 0.0 mm
19:54 18.8 °C 11.8 °C 1015.5 hPa NE 11.1 km/h 20.9 km/h 64% 0.0 mm
19:59 18.7 °C 11.8 °C 1015.5 hPa NE 10.6 km/h 19.3 km/h 64.3% 0.0 mm
20:04 18.7 °C 12 °C 1015.5 hPa NE 10 km/h 19.3 km/h 65% 0.0 mm
20:09 18.7 °C 12 °C 1015.5 hPa NE 10 km/h 19.3 km/h 65.4% 0.0 mm
20:14 18.4 °C 12 °C 1015.5 hPa NE 10 km/h 20.4 km/h 66% 0.0 mm
20:19 18.3 °C 12 °C 1015.6 hPa NE 11.2 km/h 22.2 km/h 67% 0.0 mm
20:24 18.2 °C 12.1 °C 1015.6 hPa NE 13 km/h 22.5 km/h 67.7% 0.0 mm
20:29 18.1 °C 12.1 °C 1015.6 hPa NE 12.3 km/h 21.7 km/h 68% 0.0 mm
20:34 18.1 °C 12.2 °C 1015.6 hPa NE 11.1 km/h 22.5 km/h 68.8% 0.0 mm
20:39 17.9 °C 12.1 °C 1015.6 hPa NE 11.4 km/h 22.5 km/h 69% 0.0 mm
20:44 17.8 °C 12.1 °C 1015.6 hPa NE 11.9 km/h 20.9 km/h 69% 0.0 mm
20:49 17.7 °C 12.2 °C 1015.6 hPa NE 11.9 km/h 20.9 km/h 69.9% 0.0 mm
20:54 17.7 °C 12.1 °C 1015.6 hPa NE 11.9 km/h 16.1 km/h 70% 0.0 mm
20:59 17.6 °C 12.2 °C 1015.6 hPa NE 11.2 km/h 20.4 km/h 71% 0.0 mm
21:04 17.4 °C 12.1 °C 1015.8 hPa NE 10.3 km/h 20.9 km/h 71% 0.0 mm
21:09 17.4 °C 12.2 °C 1015.8 hPa NE 10.6 km/h 19.3 km/h 71.9% 0.0 mm
21:14 17.3 °C 12.3 °C 1015.8 hPa NE 11.1 km/h 19.3 km/h 72.5% 0.0 mm
21:19 17.2 °C 12.3 °C 1015.9 hPa NE 10.8 km/h 19.3 km/h 73% 0.0 mm
21:24 17.1 °C 12.4 °C 1015.9 hPa NE 10.3 km/h 18.5 km/h 73.9% 0.0 mm
21:29 16.9 °C 12.4 °C 1015.9 hPa NE 10.6 km/h 19.3 km/h 74.7% 0.0 mm
21:34 16.8 °C 12.4 °C 1016.1 hPa NE 11.1 km/h 19.3 km/h 75.3% 0.0 mm
21:39 16.7 °C 12.5 °C 1016.1 hPa NE 10.8 km/h 19.3 km/h 76% 0.0 mm
21:44 16.7 °C 12.5 °C 1016.1 hPa NE 10.3 km/h 19.3 km/h 76.5% 0.0 mm
21:49 16.6 °C 12.5 °C 1016.2 hPa NE 10.2 km/h 17.2 km/h 77.1% 0.0 mm
21:54 16.4 °C 12.6 °C 1016.2 hPa NE 10 km/h 18 km/h 78% 0.0 mm
21:59 16.3 °C 12.5 °C 1016.2 hPa NE 10.5 km/h 19.3 km/h 78.3% 0.0 mm
22:04 16.3 °C 12.7 °C 1016.4 hPa NE 11.1 km/h 18.5 km/h 79% 0.0 mm
22:09 16.2 °C 12.6 °C 1016.4 hPa NE 10.8 km/h 19.3 km/h 79% 0.0 mm
22:14 16.2 °C 12.7 °C 1016.4 hPa NE 10.3 km/h 17.7 km/h 79.7% 0.0 mm
22:19 16.1 °C 12.7 °C 1016.7 hPa NE 10.2 km/h 16.1 km/h 80% 0.0 mm
22:24 16.1 °C 12.7 °C 1016.7 hPa NE 10 km/h 15.6 km/h 80.3% 0.0 mm
22:29 15.9 °C 12.7 °C 1016.7 hPa NE 9.8 km/h 16.1 km/h 81% 0.0 mm
22:34 15.9 °C 12.7 °C 1016.8 hPa NE 9.5 km/h 14.8 km/h 81% 0.0 mm
22:39 15.8 °C 12.7 °C 1016.8 hPa NE 9.2 km/h 15.6 km/h 81.7% 0.0 mm
22:44 15.7 °C 12.6 °C 1016.8 hPa NE 8.7 km/h 16.1 km/h 82% 0.0 mm
22:49 15.7 °C 12.7 °C 1016.9 hPa NE 9 km/h 14.5 km/h 82.4% 0.0 mm
22:54 15.6 °C 12.7 °C 1016.9 hPa NE 9.5 km/h 14.8 km/h 83% 0.0 mm
22:59 15.6 °C 12.7 °C 1016.9 hPa NE 9.1 km/h 14.5 km/h 83% 0.0 mm
23:04 15.6 °C 12.7 °C 1016.9 hPa NE 8.7 km/h 14.5 km/h 83% 0.0 mm
23:09 15.5 °C 12.7 °C 1016.9 hPa NE 8.6 km/h 14.8 km/h 83.3% 0.0 mm
23:14 15.5 °C 12.8 °C 1016.9 hPa NE 8.4 km/h 14.5 km/h 84% 0.0 mm
23:19 15.4 °C 12.7 °C 1017.0 hPa NE 8.4 km/h 14.5 km/h 84% 0.0 mm
23:24 15.3 °C 12.6 °C 1017.0 hPa NE 8.4 km/h 14.8 km/h 84% 0.0 mm
23:29 15.3 °C 12.6 °C 1017.0 hPa NE 8.4 km/h 14.5 km/h 84% 0.0 mm
23:34 15.3 °C 12.6 °C 1017.1 hPa NE 8.4 km/h 14.8 km/h 84% 0.0 mm
23:39 15.3 °C 12.6 °C 1017.1 hPa NE 8.4 km/h 14.5 km/h 84% 0.0 mm
23:44 15.3 °C 12.6 °C 1017.1 hPa NE 8.4 km/h 11.3 km/h 84% 0.0 mm
23:49 15.3 °C 12.6 °C 1017.1 hPa NE 7.6 km/h 11.3 km/h 84% 0.0 mm
23:54 15.3 °C 12.7 °C 1017.1 hPa NE 6.5 km/h 9.7 km/h 84.2% 0.0 mm
23:59 15.3 °C 12.6 °C 1017.1 hPa NE 6.5 km/h 11.1 km/h 84% 0.0 mm
Murcia-Puente Tocinos, España
Compliments of Weather Underground - 3 mb

La estación de MeteoMurcia.com, publica sus datos en los siguientes proyectos:

Weather Underground PWS IMURCIAP2 Meteoclimatic www.awekas.at

W3Counter
Web Analytics